sensor_id;sensor_type;location;lat;lon;timestamp;temperature;humidity
12841;DHT22;6487;48.626;12.486;2024-01-25T00:01:55;7.50;99.90
12841;DHT22;6487;48.626;12.486;2024-01-25T00:04:25;7.60;99.90
12841;DHT22;6487;48.626;12.486;2024-01-25T00:06:53;7.60;99.90
12841;DHT22;6487;48.626;12.486;2024-01-25T00:09:22;7.60;99.90
12841;DHT22;6487;48.626;12.486;2024-01-25T00:11:49;7.60;99.90
12841;DHT22;6487;48.626;12.486;2024-01-25T00:14:17;7.50;99.90
12841;DHT22;6487;48.626;12.486;2024-01-25T00:16:46;7.20;99.90
12841;DHT22;6487;48.626;12.486;2024-01-25T00:19:14;7.30;99.90
12841;DHT22;6487;48.626;12.486;2024-01-25T00:21:44;7.40;99.90
12841;DHT22;6487;48.626;12.486;2024-01-25T00:24:13;7.50;99.90
12841;DHT22;6487;48.626;12.486;2024-01-25T00:26:42;7.50;99.90
12841;DHT22;6487;48.626;12.486;2024-01-25T00:29:10;7.50;99.90
12841;DHT22;6487;48.626;12.486;2024-01-25T00:31:39;7.50;99.90
12841;DHT22;6487;48.626;12.486;2024-01-25T00:34:07;7.50;99.90
12841;DHT22;6487;48.626;12.486;2024-01-25T00:36:37;7.50;99.90
12841;DHT22;6487;48.626;12.486;2024-01-25T00:39:08;7.50;99.90
12841;DHT22;6487;48.626;12.486;2024-01-25T00:41:37;7.50;99.90
12841;DHT22;6487;48.626;12.486;2024-01-25T00:44:06;7.40;99.90
12841;DHT22;6487;48.626;12.486;2024-01-25T00:46:36;7.30;99.90
12841;DHT22;6487;48.626;12.486;2024-01-25T00:49:05;7.30;99.90
12841;DHT22;6487;48.626;12.486;2024-01-25T00:51:34;7.30;99.90
12841;DHT22;6487;48.626;12.486;2024-01-25T00:54:05;7.20;99.90
12841;DHT22;6487;48.626;12.486;2024-01-25T00:56:37;7.30;99.90
12841;DHT22;6487;48.626;12.486;2024-01-25T00:59:06;7.40;99.90
12841;DHT22;6487;48.626;12.486;2024-01-25T01:01:35;7.30;99.90
12841;DHT22;6487;48.626;12.486;2024-01-25T01:04:05;7.30;99.90
12841;DHT22;6487;48.626;12.486;2024-01-25T01:06:34;7.20;99.90
12841;DHT22;6487;48.626;12.486;2024-01-25T01:09:03;7.20;99.90
12841;DHT22;6487;48.626;12.486;2024-01-25T01:11:33;7.20;99.90
12841;DHT22;6487;48.626;12.486;2024-01-25T01:14:01;7.20;99.90
12841;DHT22;6487;48.626;12.486;2024-01-25T01:16:30;7.20;99.90
12841;DHT22;6487;48.626;12.486;2024-01-25T01:19:00;7.20;99.90
12841;DHT22;6487;48.626;12.486;2024-01-25T01:21:33;7.20;99.90
12841;DHT22;6487;48.626;12.486;2024-01-25T01:24:02;7.20;99.90
12841;DHT22;6487;48.626;12.486;2024-01-25T01:26:32;7.20;99.90
12841;DHT22;6487;48.626;12.486;2024-01-25T01:29:02;7.30;99.90
12841;DHT22;6487;48.626;12.486;2024-01-25T01:31:30;7.20;99.90
12841;DHT22;6487;48.626;12.486;2024-01-25T01:33:59;7.30;99.90
12841;DHT22;6487;48.626;12.486;2024-01-25T01:36:27;7.30;99.90
12841;DHT22;6487;48.626;12.486;2024-01-25T01:38:56;7.30;99.90
12841;DHT22;6487;48.626;12.486;2024-01-25T01:41:24;7.20;99.90
12841;DHT22;6487;48.626;12.486;2024-01-25T01:43:54;7.20;99.90
12841;DHT22;6487;48.626;12.486;2024-01-25T01:46:31;7.30;99.90
12841;DHT22;6487;48.626;12.486;2024-01-25T01:49:02;7.40;99.90
12841;DHT22;6487;48.626;12.486;2024-01-25T01:51:31;7.40;99.90
12841;DHT22;6487;48.626;12.486;2024-01-25T01:54:01;7.40;99.90
12841;DHT22;6487;48.626;12.486;2024-01-25T01:56:31;7.40;99.90
12841;DHT22;6487;48.626;12.486;2024-01-25T01:59:02;7.30;99.90
12841;DHT22;6487;48.626;12.486;2024-01-25T02:01:32;7.20;99.90
12841;DHT22;6487;48.626;12.486;2024-01-25T02:04:01;7.30;99.90
12841;DHT22;6487;48.626;12.486;2024-01-25T02:06:29;7.30;99.90
12841;DHT22;6487;48.626;12.486;2024-01-25T02:08:58;7.20;99.90
12841;DHT22;6487;48.626;12.486;2024-01-25T02:11:26;7.30;99.90
12841;DHT22;6487;48.626;12.486;2024-01-25T02:13:56;7.30;99.90
12841;DHT22;6487;48.626;12.486;2024-01-25T02:16:26;7.30;99.90
12841;DHT22;6487;48.626;12.486;2024-01-25T02:18:54;7.20;99.90
12841;DHT22;6487;48.626;12.486;2024-01-25T02:21:24;7.20;99.90
12841;DHT22;6487;48.626;12.486;2024-01-25T02:23:54;7.20;99.90
12841;DHT22;6487;48.626;12.486;2024-01-25T02:26:23;7.20;99.90
12841;DHT22;6487;48.626;12.486;2024-01-25T02:28:51;7.20;99.90
12841;DHT22;6487;48.626;12.486;2024-01-25T02:31:24;7.20;99.90
12841;DHT22;6487;48.626;12.486;2024-01-25T02:33:52;7.20;99.90
12841;DHT22;6487;48.626;12.486;2024-01-25T02:36:22;7.20;99.90
12841;DHT22;6487;48.626;12.486;2024-01-25T02:38:51;7.20;99.90
12841;DHT22;6487;48.626;12.486;2024-01-25T02:41:20;7.20;99.90
12841;DHT22;6487;48.626;12.486;2024-01-25T02:43:49;7.10;99.90
12841;DHT22;6487;48.626;12.486;2024-01-25T02:46:17;7.20;99.90
12841;DHT22;6487;48.626;12.486;2024-01-25T02:48:46;7.20;99.90
12841;DHT22;6487;48.626;12.486;2024-01-25T02:51:15;7.20;99.90
12841;DHT22;6487;48.626;12.486;2024-01-25T02:53:43;7.20;99.90
12841;DHT22;6487;48.626;12.486;2024-01-25T02:56:17;7.10;99.90
12841;DHT22;6487;48.626;12.486;2024-01-25T02:58:47;7.10;99.90
12841;DHT22;6487;48.626;12.486;2024-01-25T03:01:15;7.10;99.90
12841;DHT22;6487;48.626;12.486;2024-01-25T03:03:43;7.10;99.90
12841;DHT22;6487;48.626;12.486;2024-01-25T03:06:12;7.10;99.90
12841;DHT22;6487;48.626;12.486;2024-01-25T03:08:40;7.10;99.90
12841;DHT22;6487;48.626;12.486;2024-01-25T03:11:11;7.10;99.90
12841;DHT22;6487;48.626;12.486;2024-01-25T03:13:40;7.10;99.90
12841;DHT22;6487;48.626;12.486;2024-01-25T03:16:12;7.10;99.90
12841;DHT22;6487;48.626;12.486;2024-01-25T03:18:41;7.10;99.90
12841;DHT22;6487;48.626;12.486;2024-01-25T03:21:10;7.20;99.90
12841;DHT22;6487;48.626;12.486;2024-01-25T03:23:38;7.10;99.90
12841;DHT22;6487;48.626;12.486;2024-01-25T03:26:07;7.10;99.90
12841;DHT22;6487;48.626;12.486;2024-01-25T03:28:35;7.10;99.90
12841;DHT22;6487;48.626;12.486;2024-01-25T03:31:05;7.10;99.90
12841;DHT22;6487;48.626;12.486;2024-01-25T03:33:35;7.10;99.90
12841;DHT22;6487;48.626;12.486;2024-01-25T03:36:04;7.10;99.90
12841;DHT22;6487;48.626;12.486;2024-01-25T03:38:33;7.00;99.90
12841;DHT22;6487;48.626;12.486;2024-01-25T03:41:02;7.10;99.90
12841;DHT22;6487;48.626;12.486;2024-01-25T03:43:30;7.10;99.90
12841;DHT22;6487;48.626;12.486;2024-01-25T03:46:09;7.10;99.90
12841;DHT22;6487;48.626;12.486;2024-01-25T03:48:39;7.10;99.90
12841;DHT22;6487;48.626;12.486;2024-01-25T03:51:08;7.20;99.90
12841;DHT22;6487;48.626;12.486;2024-01-25T03:53:36;7.10;99.90
12841;DHT22;6487;48.626;12.486;2024-01-25T03:56:10;7.10;99.90
12841;DHT22;6487;48.626;12.486;2024-01-25T03:58:40;7.10;99.90
12841;DHT22;6487;48.626;12.486;2024-01-25T04:01:08;7.10;99.90
12841;DHT22;6487;48.626;12.486;2024-01-25T04:03:38;7.10;99.90
12841;DHT22;6487;48.626;12.486;2024-01-25T04:06:08;7.10;99.90
12841;DHT22;6487;48.626;12.486;2024-01-25T04:08:40;7.10;99.90
12841;DHT22;6487;48.626;12.486;2024-01-25T04:11:08;7.20;99.90
12841;DHT22;6487;48.626;12.486;2024-01-25T04:13:37;7.20;99.90
12841;DHT22;6487;48.626;12.486;2024-01-25T04:16:06;7.00;99.90
12841;DHT22;6487;48.626;12.486;2024-01-25T04:18:34;7.10;99.90
12841;DHT22;6487;48.626;12.486;2024-01-25T04:21:04;7.10;99.90
12841;DHT22;6487;48.626;12.486;2024-01-25T04:23:34;7.10;99.90
12841;DHT22;6487;48.626;12.486;2024-01-25T04:26:02;7.10;99.90
12841;DHT22;6487;48.626;12.486;2024-01-25T04:28:31;7.00;99.90
12841;DHT22;6487;48.626;12.486;2024-01-25T04:30:59;7.00;99.90
12841;DHT22;6487;48.626;12.486;2024-01-25T04:33:30;7.00;99.90
12841;DHT22;6487;48.626;12.486;2024-01-25T04:35:58;7.00;99.90
12841;DHT22;6487;48.626;12.486;2024-01-25T04:38:29;7.00;99.90
12841;DHT22;6487;48.626;12.486;2024-01-25T04:40:57;6.90;99.90
12841;DHT22;6487;48.626;12.486;2024-01-25T04:43:25;6.90;99.90
12841;DHT22;6487;48.626;12.486;2024-01-25T04:45:54;6.90;99.90
12841;DHT22;6487;48.626;12.486;2024-01-25T04:48:22;6.80;99.90
12841;DHT22;6487;48.626;12.486;2024-01-25T04:50:50;6.80;99.90
12841;DHT22;6487;48.626;12.486;2024-01-25T04:53:19;6.80;99.90
12841;DHT22;6487;48.626;12.486;2024-01-25T04:55:49;6.80;99.90
12841;DHT22;6487;48.626;12.486;2024-01-25T04:58:17;6.80;99.90
12841;DHT22;6487;48.626;12.486;2024-01-25T05:00:45;6.80;99.90
12841;DHT22;6487;48.626;12.486;2024-01-25T05:03:14;6.80;99.90
12841;DHT22;6487;48.626;12.486;2024-01-25T05:05:45;6.80;99.90
12841;DHT22;6487;48.626;12.486;2024-01-25T05:08:13;6.80;99.90
12841;DHT22;6487;48.626;12.486;2024-01-25T05:10:42;6.70;99.90
12841;DHT22;6487;48.626;12.486;2024-01-25T05:15:42;6.70;99.90
12841;DHT22;6487;48.626;12.486;2024-01-25T05:18:10;6.70;99.90
12841;DHT22;6487;48.626;12.486;2024-01-25T05:20:39;6.70;99.90
12841;DHT22;6487;48.626;12.486;2024-01-25T05:23:07;6.70;99.90
12841;DHT22;6487;48.626;12.486;2024-01-25T05:25:36;6.60;99.90
12841;DHT22;6487;48.626;12.486;2024-01-25T05:28:05;6.60;99.90
12841;DHT22;6487;48.626;12.486;2024-01-25T05:30:34;6.70;99.90
12841;DHT22;6487;48.626;12.486;2024-01-25T05:33:04;6.70;99.90
12841;DHT22;6487;48.626;12.486;2024-01-25T05:35:36;6.70;99.90
12841;DHT22;6487;48.626;12.486;2024-01-25T05:38:08;6.80;99.90
12841;DHT22;6487;48.626;12.486;2024-01-25T05:40:37;6.70;99.90
12841;DHT22;6487;48.626;12.486;2024-01-25T05:43:06;6.70;99.90
12841;DHT22;6487;48.626;12.486;2024-01-25T05:45:35;6.80;99.90
12841;DHT22;6487;48.626;12.486;2024-01-25T05:48:05;6.80;99.90
12841;DHT22;6487;48.626;12.486;2024-01-25T05:50:35;6.70;99.90
12841;DHT22;6487;48.626;12.486;2024-01-25T05:53:03;6.70;99.90
12841;DHT22;6487;48.626;12.486;2024-01-25T05:55:32;6.70;99.90
12841;DHT22;6487;48.626;12.486;2024-01-25T05:58:01;6.70;99.90
12841;DHT22;6487;48.626;12.486;2024-01-25T06:00:29;6.70;99.90
12841;DHT22;6487;48.626;12.486;2024-01-25T06:02:58;6.70;99.90
12841;DHT22;6487;48.626;12.486;2024-01-25T06:05:28;6.70;99.90
12841;DHT22;6487;48.626;12.486;2024-01-25T06:07:57;6.70;99.90
12841;DHT22;6487;48.626;12.486;2024-01-25T06:10:26;6.60;99.90
12841;DHT22;6487;48.626;12.486;2024-01-25T06:12:55;6.60;99.90
12841;DHT22;6487;48.626;12.486;2024-01-25T06:15:23;6.50;99.90
12841;DHT22;6487;48.626;12.486;2024-01-25T06:17:52;6.60;99.90
12841;DHT22;6487;48.626;12.486;2024-01-25T06:20:20;6.60;99.90
12841;DHT22;6487;48.626;12.486;2024-01-25T06:22:54;6.60;99.90
12841;DHT22;6487;48.626;12.486;2024-01-25T06:25:22;6.50;99.90
12841;DHT22;6487;48.626;12.486;2024-01-25T06:27:51;6.60;99.90
12841;DHT22;6487;48.626;12.486;2024-01-25T06:30:19;6.60;99.90
12841;DHT22;6487;48.626;12.486;2024-01-25T06:32:52;6.50;99.90
12841;DHT22;6487;48.626;12.486;2024-01-25T06:35:30;6.50;99.90
12841;DHT22;6487;48.626;12.486;2024-01-25T06:38:00;6.60;99.90
12841;DHT22;6487;48.626;12.486;2024-01-25T06:40:28;6.50;99.90
12841;DHT22;6487;48.626;12.486;2024-01-25T06:42:57;6.60;99.90
12841;DHT22;6487;48.626;12.486;2024-01-25T06:45:25;6.60;99.90
12841;DHT22;6487;48.626;12.486;2024-01-25T06:47:54;6.50;99.90
12841;DHT22;6487;48.626;12.486;2024-01-25T06:50:22;6.50;99.90
12841;DHT22;6487;48.626;12.486;2024-01-25T06:52:52;6.50;99.90
12841;DHT22;6487;48.626;12.486;2024-01-25T06:55:23;6.50;99.90
12841;DHT22;6487;48.626;12.486;2024-01-25T06:57:52;6.50;99.90
12841;DHT22;6487;48.626;12.486;2024-01-25T07:00:20;6.60;99.90
12841;DHT22;6487;48.626;12.486;2024-01-25T07:02:49;6.50;99.90
12841;DHT22;6487;48.626;12.486;2024-01-25T07:05:19;6.60;99.90
12841;DHT22;6487;48.626;12.486;2024-01-25T07:07:47;6.60;99.90
12841;DHT22;6487;48.626;12.486;2024-01-25T07:10:16;6.50;99.90
12841;DHT22;6487;48.626;12.486;2024-01-25T07:12:46;6.60;99.90
12841;DHT22;6487;48.626;12.486;2024-01-25T07:15:15;6.50;99.90
12841;DHT22;6487;48.626;12.486;2024-01-25T07:17:44;6.40;99.90
12841;DHT22;6487;48.626;12.486;2024-01-25T07:20:13;6.40;99.90
12841;DHT22;6487;48.626;12.486;2024-01-25T07:22:42;6.50;99.90
12841;DHT22;6487;48.626;12.486;2024-01-25T07:25:10;6.50;99.90
12841;DHT22;6487;48.626;12.486;2024-01-25T07:27:39;6.40;99.90
12841;DHT22;6487;48.626;12.486;2024-01-25T07:30:11;6.40;99.90
12841;DHT22;6487;48.626;12.486;2024-01-25T07:32:40;6.40;99.90
12841;DHT22;6487;48.626;12.486;2024-01-25T07:35:13;6.50;99.90
12841;DHT22;6487;48.626;12.486;2024-01-25T07:37:42;6.40;99.90
12841;DHT22;6487;48.626;12.486;2024-01-25T07:40:11;6.50;99.90
12841;DHT22;6487;48.626;12.486;2024-01-25T07:42:40;6.40;99.90
12841;DHT22;6487;48.626;12.486;2024-01-25T07:45:10;6.50;99.90
12841;DHT22;6487;48.626;12.486;2024-01-25T07:47:41;6.60;99.90
12841;DHT22;6487;48.626;12.486;2024-01-25T07:50:10;6.60;99.90
12841;DHT22;6487;48.626;12.486;2024-01-25T07:52:39;6.60;99.90
12841;DHT22;6487;48.626;12.486;2024-01-25T08:15:41;6.60;99.90
12841;DHT22;6487;48.626;12.486;2024-01-25T08:18:10;6.60;99.90
12841;DHT22;6487;48.626;12.486;2024-01-25T08:20:46;6.80;99.90
12841;DHT22;6487;48.626;12.486;2024-01-25T08:23:15;7.00;99.90
12841;DHT22;6487;48.626;12.486;2024-01-25T08:25:45;7.20;99.90
12841;DHT22;6487;48.626;12.486;2024-01-25T08:28:14;7.30;99.90
12841;DHT22;6487;48.626;12.486;2024-01-25T08:30:44;7.40;99.90
12841;DHT22;6487;48.626;12.486;2024-01-25T08:33:16;7.50;99.90
12841;DHT22;6487;48.626;12.486;2024-01-25T08:35:44;7.60;99.90
12841;DHT22;6487;48.626;12.486;2024-01-25T08:38:13;7.60;99.90
12841;DHT22;6487;48.626;12.486;2024-01-25T08:40:41;7.70;99.90
12841;DHT22;6487;48.626;12.486;2024-01-25T08:43:11;7.80;99.90
12841;DHT22;6487;48.626;12.486;2024-01-25T08:45:39;7.80;99.90
12841;DHT22;6487;48.626;12.486;2024-01-25T08:48:09;7.90;99.90
12841;DHT22;6487;48.626;12.486;2024-01-25T08:50:40;8.10;99.90
12841;DHT22;6487;48.626;12.486;2024-01-25T08:53:09;8.30;99.90
12841;DHT22;6487;48.626;12.486;2024-01-25T08:55:38;8.50;99.90
12841;DHT22;6487;48.626;12.486;2024-01-25T08:58:08;8.60;99.90
12841;DHT22;6487;48.626;12.486;2024-01-25T09:00:36;8.80;99.90
12841;DHT22;6487;48.626;12.486;2024-01-25T09:03:05;8.70;99.90
12841;DHT22;6487;48.626;12.486;2024-01-25T09:05:35;8.90;99.90
12841;DHT22;6487;48.626;12.486;2024-01-25T09:08:07;9.20;99.90
12841;DHT22;6487;48.626;12.486;2024-01-25T09:10:37;9.40;99.90
12841;DHT22;6487;48.626;12.486;2024-01-25T09:13:05;9.50;99.90
12841;DHT22;6487;48.626;12.486;2024-01-25T09:15:34;9.40;99.90
12841;DHT22;6487;48.626;12.486;2024-01-25T09:18:03;9.70;99.90
12841;DHT22;6487;48.626;12.486;2024-01-25T09:20:32;9.80;99.90
12841;DHT22;6487;48.626;12.486;2024-01-25T09:23:03;10.10;99.90
12841;DHT22;6487;48.626;12.486;2024-01-25T09:25:32;9.80;99.90
12841;DHT22;6487;48.626;12.486;2024-01-25T09:28:01;10.10;99.90
12841;DHT22;6487;48.626;12.486;2024-01-25T09:30:31;10.20;99.90
12841;DHT22;6487;48.626;12.486;2024-01-25T09:32:59;10.40;99.90
12841;DHT22;6487;48.626;12.486;2024-01-25T09:35:28;10.40;99.90
12841;DHT22;6487;48.626;12.486;2024-01-25T09:37:58;10.20;99.90
12841;DHT22;6487;48.626;12.486;2024-01-25T09:40:27;10.40;99.90
12841;DHT22;6487;48.626;12.486;2024-01-25T09:42:57;10.40;99.90
12841;DHT22;6487;48.626;12.486;2024-01-25T09:45:28;10.40;99.90
12841;DHT22;6487;48.626;12.486;2024-01-25T09:48:00;10.30;99.90
12841;DHT22;6487;48.626;12.486;2024-01-25T09:50:32;10.30;99.90
12841;DHT22;6487;48.626;12.486;2024-01-25T09:53:03;10.00;99.90
12841;DHT22;6487;48.626;12.486;2024-01-25T09:55:36;10.10;99.90
12841;DHT22;6487;48.626;12.486;2024-01-25T09:58:06;10.00;99.90
12841;DHT22;6487;48.626;12.486;2024-01-25T10:00:36;10.00;99.90
12841;DHT22;6487;48.626;12.486;2024-01-25T10:03:05;9.50;99.90
12841;DHT22;6487;48.626;12.486;2024-01-25T10:05:33;9.50;99.90
12841;DHT22;6487;48.626;12.486;2024-01-25T10:08:04;9.50;99.90
12841;DHT22;6487;48.626;12.486;2024-01-25T10:10:42;9.50;99.90
12841;DHT22;6487;48.626;12.486;2024-01-25T10:13:12;9.30;99.90
12841;DHT22;6487;48.626;12.486;2024-01-25T10:15:41;9.20;99.90
12841;DHT22;6487;48.626;12.486;2024-01-25T10:18:15;9.20;99.90
12841;DHT22;6487;48.626;12.486;2024-01-25T10:20:55;8.90;99.90
12841;DHT22;6487;48.626;12.486;2024-01-25T10:23:26;8.90;99.90
12841;DHT22;6487;48.626;12.486;2024-01-25T10:25:57;8.70;99.90
12841;DHT22;6487;48.626;12.486;2024-01-25T10:28:26;8.70;99.90
12841;DHT22;6487;48.626;12.486;2024-01-25T10:31:00;8.70;99.90
12841;DHT22;6487;48.626;12.486;2024-01-25T10:33:31;8.80;99.90
12841;DHT22;6487;48.626;12.486;2024-01-25T10:36:03;8.60;99.90
12841;DHT22;6487;48.626;12.486;2024-01-25T10:38:34;8.60;99.90
12841;DHT22;6487;48.626;12.486;2024-01-25T10:41:05;8.50;99.90
12841;DHT22;6487;48.626;12.486;2024-01-25T10:43:34;8.50;99.90
12841;DHT22;6487;48.626;12.486;2024-01-25T10:46:04;8.80;99.90
12841;DHT22;6487;48.626;12.486;2024-01-25T10:48:34;8.50;99.90
12841;DHT22;6487;48.626;12.486;2024-01-25T10:51:04;8.60;99.90
12841;DHT22;6487;48.626;12.486;2024-01-25T10:53:35;8.60;99.90
12841;DHT22;6487;48.626;12.486;2024-01-25T10:56:05;8.60;99.90
12841;DHT22;6487;48.626;12.486;2024-01-25T10:58:34;8.70;99.90
12841;DHT22;6487;48.626;12.486;2024-01-25T11:01:08;8.50;99.90
12841;DHT22;6487;48.626;12.486;2024-01-25T11:03:45;8.60;99.90
12841;DHT22;6487;48.626;12.486;2024-01-25T11:06:15;8.60;99.90
12841;DHT22;6487;48.626;12.486;2024-01-25T11:08:45;8.60;99.90
12841;DHT22;6487;48.626;12.486;2024-01-25T11:11:15;8.70;99.90
12841;DHT22;6487;48.626;12.486;2024-01-25T11:13:44;8.70;99.90
12841;DHT22;6487;48.626;12.486;2024-01-25T11:16:14;8.70;99.90
12841;DHT22;6487;48.626;12.486;2024-01-25T11:18:50;8.80;99.90
12841;DHT22;6487;48.626;12.486;2024-01-25T11:21:26;8.70;99.90
12841;DHT22;6487;48.626;12.486;2024-01-25T11:24:03;8.70;99.90
12841;DHT22;6487;48.626;12.486;2024-01-25T11:26:32;8.40;99.90
12841;DHT22;6487;48.626;12.486;2024-01-25T11:29:01;8.40;99.90
12841;DHT22;6487;48.626;12.486;2024-01-25T11:31:30;8.40;99.90
12841;DHT22;6487;48.626;12.486;2024-01-25T11:33:59;8.50;99.90
12841;DHT22;6487;48.626;12.486;2024-01-25T11:36:28;8.20;99.90
12841;DHT22;6487;48.626;12.486;2024-01-25T11:38:57;8.30;99.90
12841;DHT22;6487;48.626;12.486;2024-01-25T11:41:28;8.20;99.90
12841;DHT22;6487;48.626;12.486;2024-01-25T11:43:56;8.10;99.90
12841;DHT22;6487;48.626;12.486;2024-01-25T11:46:25;8.10;99.90
12841;DHT22;6487;48.626;12.486;2024-01-25T11:48:53;8.30;99.90
12841;DHT22;6487;48.626;12.486;2024-01-25T11:51:22;8.20;99.90
12841;DHT22;6487;48.626;12.486;2024-01-25T11:53:50;8.30;99.90
12841;DHT22;6487;48.626;12.486;2024-01-25T11:56:21;8.30;99.90
12841;DHT22;6487;48.626;12.486;2024-01-25T11:58:54;8.40;99.90
12841;DHT22;6487;48.626;12.486;2024-01-25T12:01:24;8.40;99.90
12841;DHT22;6487;48.626;12.486;2024-01-25T12:03:54;8.50;99.90
12841;DHT22;6487;48.626;12.486;2024-01-25T12:06:23;8.50;99.90
12841;DHT22;6487;48.626;12.486;2024-01-25T12:08:52;8.60;99.90
12841;DHT22;6487;48.626;12.486;2024-01-25T12:11:21;8.70;99.90
12841;DHT22;6487;48.626;12.486;2024-01-25T12:13:49;8.80;99.90
12841;DHT22;6487;48.626;12.486;2024-01-25T12:16:19;8.70;99.90
12841;DHT22;6487;48.626;12.486;2024-01-25T12:18:48;8.70;99.90
12841;DHT22;6487;48.626;12.486;2024-01-25T12:21:18;8.80;99.90
12841;DHT22;6487;48.626;12.486;2024-01-25T12:23:46;8.80;99.90
12841;DHT22;6487;48.626;12.486;2024-01-25T12:26:15;8.70;99.90
12841;DHT22;6487;48.626;12.486;2024-01-25T12:28:44;8.80;99.90
12841;DHT22;6487;48.626;12.486;2024-01-25T12:31:12;9.00;99.90
12841;DHT22;6487;48.626;12.486;2024-01-25T12:33:42;8.90;99.90
12841;DHT22;6487;48.626;12.486;2024-01-25T12:36:11;8.90;99.90
12841;DHT22;6487;48.626;12.486;2024-01-25T12:38:40;9.00;99.90
12841;DHT22;6487;48.626;12.486;2024-01-25T12:41:09;9.00;99.90
12841;DHT22;6487;48.626;12.486;2024-01-25T12:43:37;8.90;99.90
12841;DHT22;6487;48.626;12.486;2024-01-25T12:46:06;8.90;99.90
12841;DHT22;6487;48.626;12.486;2024-01-25T12:48:53;8.70;99.90
12841;DHT22;6487;48.626;12.486;2024-01-25T12:51:24;8.80;99.90
12841;DHT22;6487;48.626;12.486;2024-01-25T12:53:54;8.90;99.90
12841;DHT22;6487;48.626;12.486;2024-01-25T12:56:23;9.00;99.90
12841;DHT22;6487;48.626;12.486;2024-01-25T12:58:52;9.00;99.90
12841;DHT22;6487;48.626;12.486;2024-01-25T13:01:22;9.10;99.90
12841;DHT22;6487;48.626;12.486;2024-01-25T13:03:53;9.20;99.90
12841;DHT22;6487;48.626;12.486;2024-01-25T13:06:21;9.10;99.90
12841;DHT22;6487;48.626;12.486;2024-01-25T13:08:50;9.10;99.90
12841;DHT22;6487;48.626;12.486;2024-01-25T13:11:19;9.10;99.90
12841;DHT22;6487;48.626;12.486;2024-01-25T13:13:47;9.20;99.90
12841;DHT22;6487;48.626;12.486;2024-01-25T13:16:18;9.20;99.90
12841;DHT22;6487;48.626;12.486;2024-01-25T13:18:46;9.30;99.90
12841;DHT22;6487;48.626;12.486;2024-01-25T13:21:16;9.20;99.90
12841;DHT22;6487;48.626;12.486;2024-01-25T13:23:45;9.20;99.90
12841;DHT22;6487;48.626;12.486;2024-01-25T13:26:13;9.20;99.90
12841;DHT22;6487;48.626;12.486;2024-01-25T13:28:42;9.30;99.90
12841;DHT22;6487;48.626;12.486;2024-01-25T13:31:11;9.40;99.90
12841;DHT22;6487;48.626;12.486;2024-01-25T13:33:39;9.40;99.90
12841;DHT22;6487;48.626;12.486;2024-01-25T13:36:11;9.50;99.90
12841;DHT22;6487;48.626;12.486;2024-01-25T13:38:42;9.50;99.90
12841;DHT22;6487;48.626;12.486;2024-01-25T13:41:11;9.40;99.90
12841;DHT22;6487;48.626;12.486;2024-01-25T13:43:39;9.50;99.90
12841;DHT22;6487;48.626;12.486;2024-01-25T13:46:08;9.50;99.90
12841;DHT22;6487;48.626;12.486;2024-01-25T13:48:37;9.50;99.90
12841;DHT22;6487;48.626;12.486;2024-01-25T13:51:05;9.60;99.90
12841;DHT22;6487;48.626;12.486;2024-01-25T13:53:34;9.70;99.90
12841;DHT22;6487;48.626;12.486;2024-01-25T13:56:06;9.60;99.90
12841;DHT22;6487;48.626;12.486;2024-01-25T13:58:37;9.60;99.90
12841;DHT22;6487;48.626;12.486;2024-01-25T14:01:06;9.70;99.90
12841;DHT22;6487;48.626;12.486;2024-01-25T14:03:34;9.70;99.90
12841;DHT22;6487;48.626;12.486;2024-01-25T14:06:04;9.70;99.90
12841;DHT22;6487;48.626;12.486;2024-01-25T14:08:35;9.70;99.90
12841;DHT22;6487;48.626;12.486;2024-01-25T14:11:05;9.70;99.90
12841;DHT22;6487;48.626;12.486;2024-01-25T14:13:34;9.70;99.90
12841;DHT22;6487;48.626;12.486;2024-01-25T14:16:03;9.70;99.90
12841;DHT22;6487;48.626;12.486;2024-01-25T14:18:36;9.60;99.90
12841;DHT22;6487;48.626;12.486;2024-01-25T14:21:05;9.70;99.90
12841;DHT22;6487;48.626;12.486;2024-01-25T14:23:34;9.60;99.90
12841;DHT22;6487;48.626;12.486;2024-01-25T14:26:05;9.60;99.90
12841;DHT22;6487;48.626;12.486;2024-01-25T14:28:33;9.60;99.90
12841;DHT22;6487;48.626;12.486;2024-01-25T14:31:02;9.70;99.90
12841;DHT22;6487;48.626;12.486;2024-01-25T14:33:31;9.60;99.90
12841;DHT22;6487;48.626;12.486;2024-01-25T14:36:00;9.50;99.90
12841;DHT22;6487;48.626;12.486;2024-01-25T14:38:30;9.50;99.90
12841;DHT22;6487;48.626;12.486;2024-01-25T14:41:00;9.50;99.90
12841;DHT22;6487;48.626;12.486;2024-01-25T14:43:30;9.40;99.90
12841;DHT22;6487;48.626;12.486;2024-01-25T14:46:03;9.50;99.90
12841;DHT22;6487;48.626;12.486;2024-01-25T14:48:32;9.40;99.90
12841;DHT22;6487;48.626;12.486;2024-01-25T14:51:00;9.50;99.90
12841;DHT22;6487;48.626;12.486;2024-01-25T14:53:29;9.40;99.90
12841;DHT22;6487;48.626;12.486;2024-01-25T14:55:57;9.20;99.90
12841;DHT22;6487;48.626;12.486;2024-01-25T14:58:26;9.20;99.90
12841;DHT22;6487;48.626;12.486;2024-01-25T15:01:00;9.20;99.90
12841;DHT22;6487;48.626;12.486;2024-01-25T15:03:28;9.20;99.90
12841;DHT22;6487;48.626;12.486;2024-01-25T15:05:57;9.20;99.90
12841;DHT22;6487;48.626;12.486;2024-01-25T15:08:27;9.20;99.90
12841;DHT22;6487;48.626;12.486;2024-01-25T15:10:55;9.20;99.90
12841;DHT22;6487;48.626;12.486;2024-01-25T15:13:24;9.20;99.90
12841;DHT22;6487;48.626;12.486;2024-01-25T15:15:52;9.10;99.90
12841;DHT22;6487;48.626;12.486;2024-01-25T15:18:22;9.10;99.90
12841;DHT22;6487;48.626;12.486;2024-01-25T15:20:51;9.10;99.90
12841;DHT22;6487;48.626;12.486;2024-01-25T15:23:19;9.10;99.90
12841;DHT22;6487;48.626;12.486;2024-01-25T15:25:48;9.00;99.90
12841;DHT22;6487;48.626;12.486;2024-01-25T15:28:17;8.90;99.90
12841;DHT22;6487;48.626;12.486;2024-01-25T15:30:47;8.80;99.90
12841;DHT22;6487;48.626;12.486;2024-01-25T15:33:16;8.60;99.90
12841;DHT22;6487;48.626;12.486;2024-01-25T15:35:46;8.50;99.90
12841;DHT22;6487;48.626;12.486;2024-01-25T15:38:15;8.50;99.90
12841;DHT22;6487;48.626;12.486;2024-01-25T15:40:44;8.40;99.90
12841;DHT22;6487;48.626;12.486;2024-01-25T15:43:13;8.30;99.90
12841;DHT22;6487;48.626;12.486;2024-01-25T15:45:41;8.40;99.90
12841;DHT22;6487;48.626;12.486;2024-01-25T15:48:10;8.30;99.90
12841;DHT22;6487;48.626;12.486;2024-01-25T15:50:39;8.30;99.90
12841;DHT22;6487;48.626;12.486;2024-01-25T15:53:09;8.30;99.90
12841;DHT22;6487;48.626;12.486;2024-01-25T15:55:38;8.20;99.90
12841;DHT22;6487;48.626;12.486;2024-01-25T15:58:06;8.20;99.90
12841;DHT22;6487;48.626;12.486;2024-01-25T16:00:35;8.10;99.90
12841;DHT22;6487;48.626;12.486;2024-01-25T16:03:04;8.10;99.90
12841;DHT22;6487;48.626;12.486;2024-01-25T16:05:32;8.00;99.90
12841;DHT22;6487;48.626;12.486;2024-01-25T16:08:01;8.00;99.90
12841;DHT22;6487;48.626;12.486;2024-01-25T16:10:31;8.00;99.90
12841;DHT22;6487;48.626;12.486;2024-01-25T16:13:00;7.80;99.90
12841;DHT22;6487;48.626;12.486;2024-01-25T16:15:28;7.80;99.90
12841;DHT22;6487;48.626;12.486;2024-01-25T16:17:57;7.70;99.90
12841;DHT22;6487;48.626;12.486;2024-01-25T16:20:26;7.60;99.90
12841;DHT22;6487;48.626;12.486;2024-01-25T16:22:54;7.60;99.90